Des Moines, IA (50334)

8:12 AM CDT on April 18, 2015 (GMT -0500)
Cross Creek West | | Change Station
CLOSE
Current Station
Personal Weather Station
Location: Urbandale, IA
Elevation: 951 ft
Nearby Weather Stations

Elev 951 ft 41.64 °N, 93.74 °W | Updated 6 seconds ago

Rain
Rain
59.9 °F
Feels Like 59.9 °F
N
0.0
Wind Variable Wind from NE
Gusts 2.2 mph

Today
High -- | Low -- °F
--% Chance of Precip.
Yesterday
High -- | Low -- °F
Precip. -- in
6:30 AM 7:58 PM
Waning Crescent, 0% visible
Pressure 29.96 in
Visibility 10.0 miles
Clouds Mostly Cloudy 5500 ft
Overcast 11000 ft
Dew Point 46 °F
Humidity 61%
Rainfall 0.24 in
Snow Depth Not available.
UV 0 out of 12
Pollen 2.80 out of 12
Air Quality Not available.
Flu Activity Local Activity
METAR KDSM 181254Z 04011KT 10SM BKN055 OVC110 17/14 A2997 RMK AO2 RAB04E51 SLP144 P0001 T01670139 $

More Conditions Fewer Conditions

Pressure 29.96 in
Visibility 10.0 miles
Clouds Mostly Cloudy 5500 ft
Overcast 11000 ft
Dew Point 46 °F
Humidity 61%
Rainfall 0.24 in
Snow Depth Not available.
UV 0 out of 12
Pollen 2.80 out of 12
Air Quality Not available.
Flu Activity Local Activity
METAR KDSM 181254Z 04011KT 10SM BKN055 OVC110 17/14 A2997 RMK AO2 RAB04E51 SLP144 P0001 T01670139 $

More Conditions Fewer Conditions

10-Day Weather Forecast

Almanac

Astronomy

Apr. 18, 2015 Rise Set
Actual Time
Civil Twilight
Nautical Twilight
Astronomical Twilight
Moon
Length of Visible Light
Length of Day
Tomorrow will be .
, % of the Moon is Illuminated

Today's Extremes

State Highs State Lows

Community

WunderPhotos

Upload Photos

1,814,383 photos uploaded!

WunderBlogs® & News

Nearby

Air Quality

  Air Quality AQ Index Pollutant
Not available.

Snow Depth

Station Depth Elevation

Earthquake Activity

City Distance Mag. Time & Date
Minimum magnitude displayed is 2.5.

Coastal Water Temperatures

Place Temperature

Stations

Nearby Weather Stations

Station Location Temp. Windchill Dew Point Humidity Wind Precip. Elev Updated Type